Time;durP1;ratioP1;P1;durP2;ratioP2;P2;SDS_P1;SDS_P2;PMS_P1;PMS_P2;Temp;Humidity;BMP_temperature;BMP_pressure;BME280_temperature;BME280_humidity;BME280_pressure;Samples;Min_cycle;Max_cycle;Signal;HPM_P1;HPM_P2
2023/04/03 00:00:28;;;;;;;9.38;5.20;;;;;;;;;;5071965;28;20036;-66
2023/04/03 00:02:53;;;;;;;7.93;5.32;;;;;;;;;;5083987;28;20020;-65
2023/04/03 00:05:18;;;;;;;9.75;5.72;;;;;;;;;;5071561;28;20020;-65
2023/04/03 00:07:43;;;;;;;7.13;4.90;;;;;;;;;;5073047;28;20486;-65
2023/04/03 00:10:09;;;;;;;7.95;4.78;;;;;;;;;;5078873;28;20023;-65
2023/04/03 00:12:34;;;;;;;9.38;5.60;;;;;;;;;;5076018;28;20024;-65
2023/04/03 00:15:00;;;;;;;10.07;5.78;;;;;;;;;;5079467;28;20075;-65
2023/04/03 00:17:25;;;;;;;11.20;6.10;;;;;;;;;;5089722;28;20036;-65
2023/04/03 00:19:50;;;;;;;8.15;5.07;;;;;;;;;;5080131;28;20028;-65
2023/04/03 00:22:15;;;;;;;11.98;5.60;;;;;;;;;;5076529;28;20037;-65
2023/04/03 00:24:41;;;;;;;9.57;6.00;;;;;;;;;;5079936;28;20028;-65
2023/04/03 00:27:07;;;;;;;8.27;5.20;;;;;;;;;;5075769;28;20013;-66
2023/04/03 00:29:32;;;;;;;9.55;5.60;;;;;;;;;;5071329;28;20029;-65
2023/04/03 00:31:57;;;;;;;9.73;5.32;;;;;;;;;;5071369;28;20036;-65
2023/04/03 00:34:22;;;;;;;9.82;5.97;;;;;;;;;;5071431;28;20486;-65
2023/04/03 00:36:48;;;;;;;8.90;5.90;;;;;;;;;;5071254;28;20032;-66
2023/04/03 00:39:13;;;;;;;7.97;5.32;;;;;;;;;;5078577;28;20091;-65
2023/04/03 00:41:38;;;;;;;9.82;5.72;;;;;;;;;;5070953;28;20078;-65
2023/04/03 00:44:19;;;;;;;9.93;6.05;;;;;;;;;;5073149;28;20130;-65
2023/04/03 00:46:45;;;;;;;8.98;6.30;;;;;;;;;;5071217;28;20031;-65
2023/04/03 00:49:10;;;;;;;8.95;6.18;;;;;;;;;;5071101;28;20025;-65
2023/04/03 00:51:35;;;;;;;11.00;6.45;;;;;;;;;;5072302;28;20190;-65
2023/04/03 00:54:02;;;;;;;8.80;6.30;;;;;;;;;;5071353;28;20025;-65
2023/04/03 00:56:29;;;;;;;8.45;5.97;;;;;;;;;;5070876;28;20463;-65
2023/04/03 00:58:57;;;;;;;10.27;6.80;;;;;;;;;;5071418;28;20029;-65
2023/04/03 01:01:24;;;;;;;8.55;5.95;;;;;;;;;;5077128;28;20049;-65
2023/04/03 01:03:50;;;;;;;7.97;6.00;;;;;;;;;;5082508;28;20055;-65
2023/04/03 01:06:16;;;;;;;7.85;5.85;;;;;;;;;;5085879;28;20058;-65
2023/04/03 01:08:42;;;;;;;12.85;5.45;;;;;;;;;;5075001;28;20021;-66
2023/04/03 01:11:07;;;;;;;7.68;5.57;;;;;;;;;;5087691;28;20020;-66
2023/04/03 01:13:33;;;;;;;12.35;5.78;;;;;;;;;;5066087;28;20032;-65
2023/04/03 01:16:03;;;;;;;7.90;6.03;;;;;;;;;;5090919;28;20055;-65
2023/04/03 01:18:29;;;;;;;10.02;6.75;;;;;;;;;;5073743;28;20025;-65
2023/04/03 01:21:07;;;;;;;8.20;6.40;;;;;;;;;;5074455;28;20038;-65
2023/04/03 01:23:39;;;;;;;8.90;6.10;;;;;;;;;;5074078;28;20021;-65
2023/04/03 01:26:05;;;;;;;14.90;7.15;;;;;;;;;;5074062;28;20036;-64
2023/04/03 01:28:32;;;;;;;8.60;5.88;;;;;;;;;;5086233;28;20028;-66
2023/04/03 01:31:00;;;;;;;13.88;6.63;;;;;;;;;;5073806;28;20023;-65
2023/04/03 01:33:25;;;;;;;11.30;6.95;;;;;;;;;;5075838;28;20494;-66
2023/04/03 01:35:50;;;;;;;12.25;6.80;;;;;;;;;;5075155;28;20017;-66
2023/04/03 01:38:16;;;;;;;9.02;6.03;;;;;;;;;;5072988;28;20589;-66
2023/04/03 01:40:41;;;;;;;10.63;6.15;;;;;;;;;;5073841;28;20036;-66
2023/04/03 01:43:06;;;;;;;11.25;6.50;;;;;;;;;;5073934;28;20021;-66
2023/04/03 01:45:32;;;;;;;11.50;7.25;;;;;;;;;;5086808;28;20069;-66
2023/04/03 01:47:57;;;;;;;11.13;6.13;;;;;;;;;;5078915;28;20020;-66
2023/04/03 01:50:22;;;;;;;12.40;7.28;;;;;;;;;;5080827;28;20505;-64
2023/04/03 01:52:47;;;;;;;15.15;7.63;;;;;;;;;;5076055;28;20082;-64
2023/04/03 01:55:13;;;;;;;16.15;7.05;;;;;;;;;;5082732;28;20103;-66
2023/04/03 01:57:38;;;;;;;9.55;6.22;;;;;;;;;;5086072;28;20039;-64
2023/04/03 02:00:03;;;;;;;18.00;7.65;;;;;;;;;;5073608;28;20029;-64
2023/04/03 02:02:29;;;;;;;12.60;7.65;;;;;;;;;;5081441;28;20075;-65
2023/04/03 02:04:54;;;;;;;10.45;7.22;;;;;;;;;;5072996;28;20450;-65
2023/04/03 02:07:20;;;;;;;11.43;6.65;;;;;;;;;;5072548;28;20484;-65
2023/04/03 02:09:45;;;;;;;9.52;7.60;;;;;;;;;;5078325;28;20031;-65
2023/04/03 02:12:10;;;;;;;9.30;7.50;;;;;;;;;;5080939;28;20028;-65
2023/04/03 02:14:36;;;;;;;8.07;6.63;;;;;;;;;;5073144;28;20016;-65
2023/04/03 02:17:04;;;;;;;10.40;7.47;;;;;;;;;;5073145;28;20028;-65
2023/04/03 02:19:30;;;;;;;9.43;6.82;;;;;;;;;;5073094;28;20020;-65
2023/04/03 02:21:55;;;;;;;9.57;7.40;;;;;;;;;;5073010;28;20025;-65
2023/04/03 02:24:20;;;;;;;10.27;7.28;;;;;;;;;;5073734;28;20025;-65
2023/04/03 02:26:46;;;;;;;13.52;8.38;;;;;;;;;;5073369;28;20056;-65
2023/04/03 02:29:11;;;;;;;11.10;7.90;;;;;;;;;;5072930;28;20037;-65
2023/04/03 02:31:36;;;;;;;10.20;7.57;;;;;;;;;;5073230;28;20403;-65
2023/04/03 02:34:01;;;;;;;13.02;7.75;;;;;;;;;;5082058;28;20020;-65
2023/04/03 02:36:26;;;;;;;11.95;7.53;;;;;;;;;;5076998;28;20463;-65
2023/04/03 02:38:52;;;;;;;14.98;7.95;;;;;;;;;;5079010;28;20077;-65
2023/04/03 02:41:17;;;;;;;11.35;8.43;;;;;;;;;;5068092;28;20058;-65
2023/04/03 02:43:42;;;;;;;12.48;8.00;;;;;;;;;;5072679;28;20028;-65
2023/04/03 02:46:08;;;;;;;11.43;7.68;;;;;;;;;;5067072;28;20032;-65
2023/04/03 02:48:33;;;;;;;13.68;8.55;;;;;;;;;;5070418;28;20111;-65
2023/04/03 02:50:58;;;;;;;12.13;8.25;;;;;;;;;;5077955;28;20029;-65
2023/04/03 02:53:24;;;;;;;12.05;7.28;;;;;;;;;;5074513;28;20430;-65
2023/04/03 02:55:49;;;;;;;13.15;9.45;;;;;;;;;;5090329;28;20016;-65
2023/04/03 02:58:15;;;;;;;12.43;8.65;;;;;;;;;;5076807;28;20028;-65
2023/04/03 03:00:40;;;;;;;15.80;8.20;;;;;;;;;;5071892;28;20068;-65
2023/04/03 03:03:05;;;;;;;13.77;9.13;;;;;;;;;;5072063;28;20380;-65
2023/04/03 03:05:31;;;;;;;13.45;8.48;;;;;;;;;;5071703;28;20025;-65
2023/04/03 03:07:56;;;;;;;15.95;8.48;;;;;;;;;;5071964;28;20039;-64
2023/04/03 03:10:22;;;;;;;10.95;7.63;;;;;;;;;;5082627;28;20107;-64
2023/04/03 03:12:47;;;;;;;13.18;7.82;;;;;;;;;;5075434;28;20460;-65
2023/04/03 03:15:12;;;;;;;11.63;8.35;;;;;;;;;;5072285;28;20021;-64
2023/04/03 03:17:38;;;;;;;11.95;8.45;;;;;;;;;;5072732;28;20031;-64
2023/04/03 03:20:06;;;;;;;8.98;7.43;;;;;;;;;;5072180;28;20467;-64
2023/04/03 03:22:32;;;;;;;11.88;7.60;;;;;;;;;;5071304;28;20032;-64
2023/04/03 03:24:57;;;;;;;11.82;7.88;;;;;;;;;;5073070;28;20016;-64
2023/04/03 03:27:23;;;;;;;10.68;8.20;;;;;;;;;;5074369;28;20016;-66
2023/04/03 03:29:49;;;;;;;11.63;8.13;;;;;;;;;;5071991;28;20032;-65
2023/04/03 03:32:14;;;;;;;15.13;9.25;;;;;;;;;;5071866;28;20032;-65
2023/04/03 03:34:39;;;;;;;10.90;8.50;;;;;;;;;;5071893;28;20025;-66
2023/04/03 03:37:05;;;;;;;12.13;8.27;;;;;;;;;;5071856;28;20024;-65
2023/04/03 03:39:30;;;;;;;18.35;9.02;;;;;;;;;;5071779;28;20028;-66
2023/04/03 03:41:55;;;;;;;16.48;9.60;;;;;;;;;;5071782;28;20028;-65
2023/04/03 03:44:20;;;;;;;22.00;13.98;;;;;;;;;;5078029;28;20047;-65
2023/04/03 03:46:46;;;;;;;29.52;22.23;;;;;;;;;;5074253;28;20040;-66
2023/04/03 03:49:11;;;;;;;23.10;17.48;;;;;;;;;;5072043;28;20028;-66
2023/04/03 03:51:37;;;;;;;22.15;15.88;;;;;;;;;;5071545;28;20168;-66
2023/04/03 03:54:03;;;;;;;22.48;14.77;;;;;;;;;;5079515;28;20052;-65
2023/04/03 03:56:28;;;;;;;19.25;14.50;;;;;;;;;;5071345;28;20482;-66
2023/04/03 03:58:55;;;;;;;17.23;13.65;;;;;;;;;;5071696;28;20017;-65
2023/04/03 04:01:22;;;;;;;17.33;12.95;;;;;;;;;;5071528;28;20059;-65
2023/04/03 04:03:47;;;;;;;18.48;12.32;;;;;;;;;;5071883;28;20031;-66
2023/04/03 04:06:12;;;;;;;15.38;11.82;;;;;;;;;;5071722;28;20036;-66
2023/04/03 04:08:37;;;;;;;16.45;12.60;;;;;;;;;;5071735;28;20051;-65
2023/04/03 04:11:03;;;;;;;18.50;12.38;;;;;;;;;;5084772;28;20020;-65
2023/04/03 04:13:28;;;;;;;16.27;11.98;;;;;;;;;;5071842;28;20039;-66
2023/04/03 04:15:53;;;;;;;17.20;11.25;;;;;;;;;;5071499;28;20039;-67
2023/04/03 04:18:20;;;;;;;15.85;11.30;;;;;;;;;;5080951;28;20067;-66
2023/04/03 04:20:45;;;;;;;20.25;12.30;;;;;;;;;;5081802;28;20029;-66
2023/04/03 04:23:10;;;;;;;18.33;12.35;;;;;;;;;;5071712;28;20070;-66
2023/04/03 04:25:36;;;;;;;16.55;12.18;;;;;;;;;;5071301;28;20533;-65
2023/04/03 04:28:01;;;;;;;18.88;12.48;;;;;;;;;;5071854;28;20024;-65
2023/04/03 04:30:27;;;;;;;17.80;12.07;;;;;;;;;;5071191;28;20025;-65
2023/04/03 04:32:52;;;;;;;16.92;12.30;;;;;;;;;;5071377;28;20100;-65
2023/04/03 04:35:18;;;;;;;17.02;11.80;;;;;;;;;;5086611;28;20032;-65
2023/04/03 04:37:43;;;;;;;16.13;11.10;;;;;;;;;;5075537;28;20029;-65
2023/04/03 04:40:09;;;;;;;19.80;12.55;;;;;;;;;;5074802;28;20068;-64
2023/04/03 04:42:34;;;;;;;16.88;12.07;;;;;;;;;;5074698;28;20024;-64
2023/04/03 04:45:00;;;;;;;16.33;12.07;;;;;;;;;;5075365;28;20082;-65
2023/04/03 04:47:25;;;;;;;18.52;12.00;;;;;;;;;;5076409;28;20471;-64
2023/04/03 04:49:50;;;;;;;14.18;10.52;;;;;;;;;;5074437;28;20035;-65
2023/04/03 04:52:15;;;;;;;18.27;12.23;;;;;;;;;;5075028;28;20024;-66
2023/04/03 04:54:41;;;;;;;13.98;10.00;;;;;;;;;;5076109;28;20352;-64
2023/04/03 04:57:06;;;;;;;20.23;11.43;;;;;;;;;;5074709;28;20039;-64
2023/04/03 04:59:32;;;;;;;16.33;11.05;;;;;;;;;;5074415;28;20020;-64
2023/04/03 05:01:57;;;;;;;16.05;11.55;;;;;;;;;;5074775;28;20375;-64
2023/04/03 05:04:23;;;;;;;14.93;10.80;;;;;;;;;;5075570;28;20016;-64
2023/04/03 05:06:48;;;;;;;16.25;11.05;;;;;;;;;;5074076;28;20028;-64
2023/04/03 05:09:14;;;;;;;20.60;11.40;;;;;;;;;;5075961;28;20088;-65
2023/04/03 05:11:39;;;;;;;16.48;11.98;;;;;;;;;;5087735;28;20025;-65
2023/04/03 05:14:07;;;;;;;16.60;11.10;;;;;;;;;;5074430;28;20516;-65
2023/04/03 05:16:33;;;;;;;21.98;11.52;;;;;;;;;;5084620;28;20041;-65
2023/04/03 05:18:58;;;;;;;17.05;10.75;;;;;;;;;;5073881;28;20386;-65
2023/04/03 05:21:25;;;;;;;13.85;10.38;;;;;;;;;;5074456;28;20060;-65
2023/04/03 05:23:51;;;;;;;17.10;10.80;;;;;;;;;;5076424;28;20036;-65
2023/04/03 05:26:16;;;;;;;13.80;10.02;;;;;;;;;;5076239;28;20046;-65
2023/04/03 05:28:41;;;;;;;15.75;10.40;;;;;;;;;;5074191;28;20024;-65
2023/04/03 05:31:07;;;;;;;11.93;10.23;;;;;;;;;;5073962;28;20392;-65
2023/04/03 05:33:32;;;;;;;17.77;10.20;;;;;;;;;;5073922;28;20027;-65
2023/04/03 05:36:01;;;;;;;15.88;10.13;;;;;;;;;;5073929;28;20128;-65
2023/04/03 05:38:26;;;;;;;15.15;10.23;;;;;;;;;;5076012;28;20062;-65
2023/04/03 05:40:51;;;;;;;14.25;9.13;;;;;;;;;;5076723;28;20056;-66
2023/04/03 05:43:17;;;;;;;11.77;8.88;;;;;;;;;;5079131;28;20111;-66
2023/04/03 05:45:42;;;;;;;14.18;9.43;;;;;;;;;;5078116;28;20013;-65
2023/04/03 05:48:08;;;;;;;15.63;9.43;;;;;;;;;;5078674;28;20021;-65
2023/04/03 05:50:33;;;;;;;16.98;8.95;;;;;;;;;;5072605;28;20039;-64
2023/04/03 05:52:58;;;;;;;12.70;8.32;;;;;;;;;;5061945;28;20441;-64
2023/04/03 05:55:24;;;;;;;14.45;8.65;;;;;;;;;;5072012;28;20046;-65
2023/04/03 05:57:50;;;;;;;13.05;7.80;;;;;;;;;;5082976;28;20383;-65
2023/04/03 06:00:15;;;;;;;8.60;6.82;;;;;;;;;;5075351;28;20127;-65
2023/04/03 06:02:41;;;;;;;13.57;7.57;;;;;;;;;;5082588;28;20073;-65
2023/04/03 06:05:08;;;;;;;12.85;7.65;;;;;;;;;;5076219;28;20028;-65
2023/04/03 06:07:34;;;;;;;15.73;8.45;;;;;;;;;;5073643;28;20471;-65
2023/04/03 06:09:59;;;;;;;8.95;6.90;;;;;;;;;;5082684;28;20028;-65
2023/04/03 06:12:25;;;;;;;12.15;6.43;;;;;;;;;;5079246;28;20475;-64
2023/04/03 06:14:51;;;;;;;9.70;7.05;;;;;;;;;;5072993;28;20514;-65
2023/04/03 06:17:17;;;;;;;10.65;7.13;;;;;;;;;;5075645;28;20077;-65
2023/04/03 06:19:43;;;;;;;10.75;5.95;;;;;;;;;;5072360;28;20028;-65
2023/04/03 06:22:08;;;;;;;8.55;6.15;;;;;;;;;;5075800;28;20040;-67
2023/04/03 06:24:33;;;;;;;18.30;7.20;;;;;;;;;;5075318;28;20061;-65
2023/04/03 06:26:59;;;;;;;10.48;6.20;;;;;;;;;;5073293;28;20012;-65
2023/04/03 06:29:24;;;;;;;14.80;5.88;;;;;;;;;;5074579;28;20387;-65
2023/04/03 06:31:50;;;;;;;13.45;6.07;;;;;;;;;;5079935;28;20051;-65
2023/04/03 06:34:16;;;;;;;14.95;5.90;;;;;;;;;;5072959;28;20037;-65
2023/04/03 06:36:42;;;;;;;11.07;6.18;;;;;;;;;;5073822;28;20382;-64
2023/04/03 06:39:09;;;;;;;12.63;6.43;;;;;;;;;;5071716;28;20452;-65
2023/04/03 06:41:34;;;;;;;11.85;6.47;;;;;;;;;;5072943;28;20029;-65
2023/04/03 06:44:00;;;;;;;10.52;5.90;;;;;;;;;;5085987;28;20095;-65
2023/04/03 06:46:26;;;;;;;13.73;7.00;;;;;;;;;;5072798;28;20020;-65
2023/04/03 06:48:51;;;;;;;7.93;6.20;;;;;;;;;;5077857;28;20032;-66
2023/04/03 06:51:27;;;;;;;9.95;6.18;;;;;;;;;;5073965;28;20111;-66
2023/04/03 06:53:53;;;;;;;12.20;6.40;;;;;;;;;;5078132;28;20024;-66
2023/04/03 06:56:19;;;;;;;10.73;6.20;;;;;;;;;;5078439;28;20028;-65
2023/04/03 06:58:46;;;;;;;8.65;6.22;;;;;;;;;;5071509;28;20383;-66
2023/04/03 07:01:12;;;;;;;8.40;5.68;;;;;;;;;;5071618;28;20502;-66
2023/04/03 07:03:37;;;;;;;10.23;5.78;;;;;;;;;;5072780;28;20024;-66
2023/04/03 07:06:04;;;;;;;9.30;5.80;;;;;;;;;;5074970;28;20037;-64
2023/04/03 07:08:29;;;;;;;13.00;6.55;;;;;;;;;;5077905;28;20183;-65
2023/04/03 07:10:55;;;;;;;10.52;5.07;;;;;;;;;;5072792;28;20119;-66
2023/04/03 07:13:20;;;;;;;8.75;5.18;;;;;;;;;;5071981;28;20024;-66
2023/04/03 07:15:45;;;;;;;8.73;5.15;;;;;;;;;;5071612;28;20059;-65
2023/04/03 07:18:11;;;;;;;12.48;5.18;;;;;;;;;;5072451;28;20024;-65
2023/04/03 07:20:36;;;;;;;10.13;5.60;;;;;;;;;;5072223;28;20425;-66
2023/04/03 07:23:01;;;;;;;12.75;4.90;;;;;;;;;;5072167;28;20036;-65
2023/04/03 07:25:27;;;;;;;7.97;5.07;;;;;;;;;;5070227;28;20109;-66
2023/04/03 07:27:54;;;;;;;8.68;4.90;;;;;;;;;;5074468;28;20028;-65
2023/04/03 07:30:19;;;;;;;12.73;5.07;;;;;;;;;;5070572;28;20024;-65
2023/04/03 07:32:44;;;;;;;8.68;4.72;;;;;;;;;;5084330;28;20635;-65
2023/04/03 07:35:10;;;;;;;10.48;4.70;;;;;;;;;;5077418;28;20020;-65
2023/04/03 07:37:35;;;;;;;8.95;4.50;;;;;;;;;;5072571;28;20020;-65
2023/04/03 07:40:04;;;;;;;11.75;4.50;;;;;;;;;;5069783;28;20032;-65
2023/04/03 07:42:29;;;;;;;8.07;4.60;;;;;;;;;;5070244;28;20483;-65
2023/04/03 07:44:54;;;;;;;9.85;4.50;;;;;;;;;;5070902;28;20025;-66
2023/04/03 07:47:20;;;;;;;8.75;4.72;;;;;;;;;;5075185;28;20028;-65
2023/04/03 07:49:46;;;;;;;7.22;4.63;;;;;;;;;;5070690;28;20030;-66
2023/04/03 07:52:14;;;;;;;13.88;4.25;;;;;;;;;;5085245;28;20028;-66
2023/04/03 07:54:40;;;;;;;7.00;4.10;;;;;;;;;;5070508;28;20090;-66
2023/04/03 07:57:05;;;;;;;8.95;4.78;;;;;;;;;;5073637;28;20024;-66
2023/04/03 07:59:30;;;;;;;15.98;4.50;;;;;;;;;;5070776;28;20035;-66
2023/04/03 08:01:56;;;;;;;7.28;4.35;;;;;;;;;;5073278;28;20029;-65
2023/04/03 08:04:21;;;;;;;9.23;4.65;;;;;;;;;;5070191;28;20132;-66
2023/04/03 08:06:46;;;;;;;10.75;4.10;;;;;;;;;;5072977;28;20030;-66
2023/04/03 08:09:12;;;;;;;7.03;3.47;;;;;;;;;;5073114;28;20024;-66
2023/04/03 08:11:38;;;;;;;9.10;3.63;;;;;;;;;;5087310;28;20114;-66
2023/04/03 08:14:04;;;;;;;6.60;3.58;;;;;;;;;;5072968;28;20028;-66
2023/04/03 08:16:29;;;;;;;8.70;4.20;;;;;;;;;;5072679;28;20085;-66
2023/04/03 08:18:55;;;;;;;9.68;4.15;;;;;;;;;;5071716;28;20035;-66
2023/04/03 08:21:20;;;;;;;8.05;4.03;;;;;;;;;;5077742;28;20038;-66
2023/04/03 08:23:47;;;;;;;6.68;3.65;;;;;;;;;;5073643;28;20020;-65
2023/04/03 08:26:14;;;;;;;9.02;3.85;;;;;;;;;;5075626;28;20035;-66
2023/04/03 08:28:40;;;;;;;6.78;3.85;;;;;;;;;;5087144;28;20028;-66
2023/04/03 08:31:06;;;;;;;7.97;3.35;;;;;;;;;;5075072;28;20095;-65
2023/04/03 08:33:33;;;;;;;5.93;3.50;;;;;;;;;;5073763;28;20100;-65
2023/04/03 08:35:58;;;;;;;6.70;3.33;;;;;;;;;;5071979;28;20505;-65
2023/04/03 08:38:24;;;;;;;3.95;2.78;;;;;;;;;;5076288;28;20096;-65
2023/04/03 08:40:59;;;;;;;7.28;3.17;;;;;;;;;;5078885;28;20020;-65
2023/04/03 08:43:32;;;;;;;6.30;3.35;;;;;;;;;;5078143;28;20029;-65
2023/04/03 08:45:59;;;;;;;6.65;3.58;;;;;;;;;;5080141;28;20482;-66
2023/04/03 08:48:30;;;;;;;10.15;3.13;;;;;;;;;;5076888;28;20024;-65
2023/04/03 08:51:02;;;;;;;6.28;3.17;;;;;;;;;;5077736;28;20028;-66
2023/04/03 08:53:31;;;;;;;11.60;3.08;;;;;;;;;;5074104;28;20020;-66
2023/04/03 08:55:58;;;;;;;9.15;3.53;;;;;;;;;;5073829;28;20745;-66
2023/04/03 08:58:25;;;;;;;7.53;3.00;;;;;;;;;;5082604;28;20036;-65
2023/04/03 09:00:56;;;;;;;5.78;3.05;;;;;;;;;;5082984;28;20111;-66
2023/04/03 09:03:22;;;;;;;6.53;3.13;;;;;;;;;;5073485;28;20459;-66
2023/04/03 09:05:55;;;;;;;6.88;3.53;;;;;;;;;;5072784;28;20024;-66
2023/04/03 09:08:31;;;;;;;8.27;3.15;;;;;;;;;;5073479;28;20107;-66
2023/04/03 09:11:07;;;;;;;10.02;3.22;;;;;;;;;;5078507;28;20022;-66
2023/04/03 09:13:39;;;;;;;5.40;2.67;;;;;;;;;;5072594;28;20115;-66
2023/04/03 09:16:12;;;;;;;6.70;3.10;;;;;;;;;;5077527;28;20024;-66
2023/04/03 09:18:41;;;;;;;7.78;2.67;;;;;;;;;;5073887;28;20024;-66
2023/04/03 09:21:27;;;;;;;6.22;2.60;;;;;;;;;;5076105;28;20036;-66
2023/04/03 09:23:55;;;;;;;5.10;1.90;;;;;;;;;;5072332;28;20024;-67
2023/04/03 09:26:36;;;;;;;6.63;2.65;;;;;;;;;;5072882;28;20034;-66
2023/04/03 09:29:04;;;;;;;6.10;2.13;;;;;;;;;;5072478;28;20029;-66
2023/04/03 09:31:35;;;;;;;5.20;1.98;;;;;;;;;;5074445;28;20028;-65
2023/04/03 09:34:02;;;;;;;4.88;1.50;;;;;;;;;;5072416;28;20530;-66
2023/04/03 09:36:48;;;;;;;7.05;1.80;;;;;;;;;;5072063;28;20070;-66
2023/04/03 09:39:24;;;;;;;4.25;1.77;;;;;;;;;;5070632;28;20046;-65
2023/04/03 09:41:55;;;;;;;3.72;1.40;;;;;;;;;;5079643;28;20514;-66
2023/04/03 09:44:22;;;;;;;5.10;1.52;;;;;;;;;;5073082;28;20526;-66
2023/04/03 09:46:47;;;;;;;2.90;1.55;;;;;;;;;;5079914;28;20028;-67
2023/04/03 09:49:12;;;;;;;4.72;1.75;;;;;;;;;;5076957;28;20095;-65
2023/04/03 09:51:38;;;;;;;4.78;1.88;;;;;;;;;;5084215;28;20024;-65
2023/04/03 09:54:22;;;;;;;3.95;1.55;;;;;;;;;;5073014;28;20532;-64
2023/04/03 09:56:50;;;;;;;6.65;1.73;;;;;;;;;;5073432;28;20071;-67
2023/04/03 09:59:16;;;;;;;3.70;1.10;;;;;;;;;;5072474;28;20025;-64
2023/04/03 10:01:43;;;;;;;3.42;1.45;;;;;;;;;;5075392;28;20502;-65
2023/04/03 10:04:16;;;;;;;2.50;0.80;;;;;;;;;;5072782;28;20048;-64
2023/04/03 10:06:46;;;;;;;5.88;0.90;;;;;;;;;;5074499;28;20036;-64
2023/04/03 10:09:25;;;;;;;3.83;1.00;;;;;;;;;;5072717;28;20033;-64
2023/04/03 10:12:01;;;;;;;4.95;1.33;;;;;;;;;;5083588;28;20029;-64
2023/04/03 10:14:26;;;;;;;2.97;1.00;;;;;;;;;;5071960;28;20447;-64
2023/04/03 10:17:11;;;;;;;2.25;0.98;;;;;;;;;;5080821;28;20102;-64
2023/04/03 10:19:39;;;;;;;3.38;1.00;;;;;;;;;;5071394;28;20021;-64
2023/04/03 10:22:23;;;;;;;3.60;1.70;;;;;;;;;;5072583;28;20086;-64
2023/04/03 10:24:49;;;;;;;;;;;;;;;;;;5072019;28;20029;-64
2023/04/03 10:27:37;;;;;;;2.33;0.93;;;;;;;;;;5077083;28;19912;-64
2023/04/03 10:30:11;;;;;;;4.05;1.15;;;;;;;;;;5071935;28;20103;-64
2023/04/03 10:32:43;;;;;;;2.20;0.98;;;;;;;;;;5074201;28;20028;-64
2023/04/03 10:35:12;;;;;;;2.95;0.82;;;;;;;;;;5071672;28;20036;-64
2023/04/03 10:38:00;;;;;;;3.10;0.93;;;;;;;;;;5076307;28;20158;-64
2023/04/03 10:40:41;;;;;;;1.42;0.50;;;;;;;;;;5040749;28;20048;-64
2023/04/03 10:43:17;;;;;;;1.98;0.80;;;;;;;;;;5074059;28;20039;-64
2023/04/03 10:45:45;;;;;;;2.35;0.82;;;;;;;;;;5082697;28;20028;-64
2023/04/03 10:48:29;;;;;;;3.05;1.27;;;;;;;;;;5073504;28;20020;-64
2023/04/03 10:51:01;;;;;;;2.08;0.90;;;;;;;;;;5071278;28;20387;-63
2023/04/03 10:53:32;;;;;;;3.92;1.15;;;;;;;;;;5072283;28;20550;-64
2023/04/03 10:56:13;;;;;;;3.60;0.98;;;;;;;;;;5069087;28;20032;-64
2023/04/03 10:58:54;;;;;;;3.70;1.20;;;;;;;;;;5074558;28;20474;-65
2023/04/03 11:01:25;;;;;;;2.78;1.10;;;;;;;;;;5072791;28;20055;-64
2023/04/03 11:03:57;;;;;;;1.92;0.93;;;;;;;;;;5080673;28;20078;-63
2023/04/03 11:06:24;;;;;;;3.60;1.42;;;;;;;;;;5071924;28;20020;-64
2023/04/03 11:08:56;;;;;;;2.63;1.20;;;;;;;;;;5071593;28;20395;-63
2023/04/03 11:11:27;;;;;;;2.22;1.02;;;;;;;;;;5075773;28;20032;-62
2023/04/03 11:14:13;;;;;;;2.28;1.10;;;;;;;;;;5078682;28;20028;-63
2023/04/03 11:16:41;;;;;;;3.03;1.27;;;;;;;;;;5071433;28;20093;-62
2023/04/03 11:19:13;;;;;;;2.58;1.10;;;;;;;;;;5069587;28;20103;-62
2023/04/03 11:21:44;;;;;;;2.10;1.10;;;;;;;;;;5075027;28;20026;-63
2023/04/03 11:24:29;;;;;;;8.05;1.42;;;;;;;;;;5076138;28;20386;-63
2023/04/03 11:26:56;;;;;;;3.80;1.00;;;;;;;;;;5073352;28;20036;-63
2023/04/03 11:29:24;;;;;;;4.15;1.05;;;;;;;;;;5077717;28;20471;-62
2023/04/03 11:32:08;;;;;;;3.95;1.45;;;;;;;;;;5082624;28;20032;-62
2023/04/03 11:34:38;;;;;;;2.97;1.10;;;;;;;;;;5070795;28;20021;-62
2023/04/03 11:37:05;;;;;;;3.63;1.60;;;;;;;;;;5070825;28;20664;-63
2023/04/03 11:39:33;;;;;;;3.03;0.93;;;;;;;;;;5077675;28;20386;-62
2023/04/03 11:42:15;;;;;;;3.10;1.25;;;;;;;;;;5073628;28;20383;-62
2023/04/03 11:44:41;;;;;;;1.88;1.05;;;;;;;;;;5078412;28;20103;-62
2023/04/03 11:47:07;;;;;;;4.40;1.50;;;;;;;;;;5077821;28;20107;-62
2023/04/03 11:49:59;;;;;;;7.88;1.70;;;;;;;;;;5074098;28;20025;-63
2023/04/03 11:52:39;;;;;;;2.92;1.30;;;;;;;;;;5071431;28;20025;-63
2023/04/03 11:55:20;;;;;;;3.30;1.50;;;;;;;;;;5073484;28;20020;-63
2023/04/03 11:57:46;;;;;;;4.32;1.30;;;;;;;;;;5069943;28;20427;-63
2023/04/03 12:00:30;;;;;;;4.33;1.53;;;;;;;;;;5070428;28;20149;-63
2023/04/03 12:02:55;;;;;;;3.10;1.40;;;;;;;;;;5077512;28;20286;-64
2023/04/03 12:05:26;;;;;;;5.78;1.85;;;;;;;;;;5069837;28;20376;-63
2023/04/03 12:08:10;;;;;;;3.33;1.45;;;;;;;;;;5074599;28;20112;-64
2023/04/03 12:10:35;;;;;;;4.15;1.65;;;;;;;;;;5073275;28;20023;-65
2023/04/03 12:13:04;;;;;;;5.93;1.67;;;;;;;;;;5075577;28;20021;-64
2023/04/03 12:15:35;;;;;;;4.00;1.95;;;;;;;;;;5069858;28;20047;-64
2023/04/03 12:18:20;;;;;;;3.00;1.92;;;;;;;;;;5076400;28;20044;-64
2023/04/03 12:20:52;;;;;;;5.68;1.80;;;;;;;;;;5078876;28;20036;-65
2023/04/03 12:23:24;;;;;;;5.28;1.65;;;;;;;;;;5047039;28;20893;-63
2023/04/03 12:25:50;;;;;;;3.33;1.77;;;;;;;;;;5034290;28;20025;-63
2023/04/03 12:28:16;;;;;;;3.78;1.80;;;;;;;;;;5042327;28;20020;-64
2023/04/03 12:30:42;;;;;;;3.67;1.50;;;;;;;;;;5060372;28;20024;-63
2023/04/03 12:33:27;;;;;;;2.85;1.65;;;;;;;;;;5082224;28;20114;-63
2023/04/03 12:35:52;;;;;;;;;;;;;;;;;;5071000;28;20047;-63
2023/04/03 12:38:20;;;;;;;6.05;1.85;;;;;;;;;;5075244;28;19909;-63
2023/04/03 12:41:05;;;;;;;5.88;1.88;;;;;;;;;;5070947;28;20858;-63
2023/04/03 12:43:36;;;;;;;3.85;2.00;;;;;;;;;;5075080;28;20024;-63
2023/04/03 12:46:07;;;;;;;4.47;1.92;;;;;;;;;;5075200;28;20039;-63
2023/04/03 12:48:46;;;;;;;3.58;2.00;;;;;;;;;;5071674;28;20790;-64
2023/04/03 12:51:16;;;;;;;4.15;2.13;;;;;;;;;;5072284;28;20032;-65
2023/04/03 12:53:42;;;;;;;3.72;1.60;;;;;;;;;;5077114;28;20453;-64
2023/04/03 12:56:25;;;;;;;4.53;2.00;;;;;;;;;;5080330;28;20032;-64
2023/04/03 12:58:51;;;;;;;5.57;1.98;;;;;;;;;;5082588;28;20085;-64
2023/04/03 13:01:18;;;;;;;3.67;1.75;;;;;;;;;;5080043;28;20495;-64
2023/04/03 13:03:45;;;;;;;4.53;1.70;;;;;;;;;;5073923;28;20021;-63
2023/04/03 13:06:11;;;;;;;2.88;1.35;;;;;;;;;;5077416;28;20100;-63
2023/04/03 13:08:37;;;;;;;5.25;1.73;;;;;;;;;;5081204;28;20081;-63
2023/04/03 13:11:07;;;;;;;3.90;2.00;;;;;;;;;;5073170;28;20047;-63
2023/04/03 13:13:33;;;;;;;4.60;2.00;;;;;;;;;;5083814;28;20024;-62
2023/04/03 13:15:58;;;;;;;7.57;1.97;;;;;;;;;;5078635;28;20034;-63
2023/04/03 13:18:23;;;;;;;4.22;2.10;;;;;;;;;;5077933;28;20278;-63
2023/04/03 13:20:49;;;;;;;4.77;1.80;;;;;;;;;;5075488;28;20054;-63
2023/04/03 13:23:17;;;;;;;3.80;1.88;;;;;;;;;;5073196;28;20365;-63
2023/04/03 13:25:44;;;;;;;5.00;1.88;;;;;;;;;;5079716;28;20463;-64
2023/04/03 13:28:11;;;;;;;5.20;1.88;;;;;;;;;;5081392;28;20055;-63
2023/04/03 13:30:38;;;;;;;4.13;1.67;;;;;;;;;;5069129;28;20047;-63
2023/04/03 13:33:05;;;;;;;3.30;1.65;;;;;;;;;;5053487;28;20360;-63
2023/04/03 13:35:35;;;;;;;6.53;2.13;;;;;;;;;;5074330;28;21010;-63
2023/04/03 13:38:03;;;;;;;2.85;1.63;;;;;;;;;;5065608;28;20047;-63
2023/04/03 13:40:28;;;;;;;4.47;1.70;;;;;;;;;;5067978;28;20067;-63
2023/04/03 13:43:20;;;;;;;4.35;2.00;;;;;;;;;;5055665;28;20846;-63
2023/04/03 13:45:59;;;;;;;4.63;2.03;;;;;;;;;;5053454;28;20068;-63
2023/04/03 13:48:25;;;;;;;3.30;1.85;;;;;;;;;;5063674;28;20717;-63
2023/04/03 13:51:00;;;;;;;3.72;1.98;;;;;;;;;;5047712;28;20031;-63
2023/04/03 13:53:27;;;;;;;3.10;1.55;;;;;;;;;;5062590;28;20035;-63
2023/04/03 13:56:09;;;;;;;3.80;1.75;;;;;;;;;;5083273;28;20032;-63
2023/04/03 13:58:35;;;;;;;4.70;1.95;;;;;;;;;;5078677;28;20055;-63
2023/04/03 14:01:06;;;;;;;3.40;1.65;;;;;;;;;;5075629;28;20151;-63
2023/04/03 14:03:39;;;;;;;4.78;2.13;;;;;;;;;;5073611;28;20077;-64
2023/04/03 14:06:05;;;;;;;3.67;2.20;;;;;;;;;;5082263;28;20035;-63
2023/04/03 14:08:31;;;;;;;3.60;2.13;;;;;;;;;;5076971;28;20036;-63
2023/04/03 14:10:56;;;;;;;5.07;1.60;;;;;;;;;;5085422;28;20016;-63
2023/04/03 14:13:22;;;;;;;4.80;1.60;;;;;;;;;;5073340;28;20031;-63
2023/04/03 14:15:48;;;;;;;3.95;1.92;;;;;;;;;;5081323;28;20016;-63
2023/04/03 14:18:15;;;;;;;4.03;1.85;;;;;;;;;;5080344;28;20077;-63
2023/04/03 14:20:40;;;;;;;4.45;1.98;;;;;;;;;;5088619;28;20799;-63
2023/04/03 14:23:06;;;;;;;4.30;1.63;;;;;;;;;;5089243;28;20046;-63
2023/04/03 14:25:31;;;;;;;6.35;2.58;;;;;;;;;;5086830;28;20107;-63
2023/04/03 14:27:57;;;;;;;4.63;1.98;;;;;;;;;;5075300;28;20080;-63
2023/04/03 14:30:28;;;;;;;4.38;1.60;;;;;;;;;;5085198;28;20027;-64
2023/04/03 14:32:53;;;;;;;4.55;1.70;;;;;;;;;;5072515;28;20050;-63
2023/04/03 14:35:18;;;;;;;4.85;1.88;;;;;;;;;;5079597;28;20462;-63
2023/04/03 14:37:44;;;;;;;3.47;1.73;;;;;;;;;;5085793;28;20366;-63
2023/04/03 14:40:12;;;;;;;3.80;1.67;;;;;;;;;;5077164;28;20029;-63